sensor_id;sensor_type;location;lat;lon;timestamp;pressure;altitude;pressure_sealevel;temperature;humidity
9091;BME280;4581;42.416;25.598;2023-05-03T00:02:06;67024.69;;;0.00;nan
9091;BME280;4581;42.416;25.598;2023-05-03T00:04:33;67020.09;;;0.00;nan
9091;BME280;4581;42.416;25.598;2023-05-03T00:07:00;67018.56;;;0.00;nan
9091;BME280;4581;42.416;25.598;2023-05-03T00:09:27;67029.25;;;0.00;nan
9091;BME280;4581;42.416;25.598;2023-05-03T00:11:54;67029.25;;;0.00;nan
9091;BME280;4581;42.416;25.598;2023-05-03T00:14:20;67027.72;;;0.00;nan
9091;BME280;4581;42.416;25.598;2023-05-03T00:16:47;67030.78;;;0.00;nan
9091;BME280;4581;42.416;25.598;2023-05-03T00:19:14;67041.47;;;0.00;nan
9091;BME280;4581;42.416;25.598;2023-05-03T00:21:56;67036.88;;;0.00;nan
9091;BME280;4581;42.416;25.598;2023-05-03T00:24:22;67033.84;;;0.00;nan
9091;BME280;4581;42.416;25.598;2023-05-03T00:26:49;67030.78;;;0.00;nan
9091;BME280;4581;42.416;25.598;2023-05-03T00:29:16;67030.78;;;0.00;nan
9091;BME280;4581;42.416;25.598;2023-05-03T00:31:44;67029.25;;;0.00;nan
9091;BME280;4581;42.416;25.598;2023-05-03T00:34:11;67032.31;;;0.00;nan
9091;BME280;4581;42.416;25.598;2023-05-03T00:36:37;67036.88;;;0.00;nan
9091;BME280;4581;42.416;25.598;2023-05-03T00:39:04;67039.94;;;0.00;nan
9091;BME280;4581;42.416;25.598;2023-05-03T00:41:31;67043.00;;;0.00;nan
9091;BME280;4581;42.416;25.598;2023-05-03T00:43:57;67038.41;;;0.00;nan
9091;BME280;4581;42.416;25.598;2023-05-03T00:46:24;67041.47;;;0.00;nan
9091;BME280;4581;42.416;25.598;2023-05-03T00:48:51;67039.94;;;0.00;nan
9091;BME280;4581;42.416;25.598;2023-05-03T00:51:18;67033.84;;;0.00;nan
9091;BME280;4581;42.416;25.598;2023-05-03T00:53:46;67032.31;;;0.00;nan
9091;BME280;4581;42.416;25.598;2023-05-03T00:56:17;67035.38;;;0.00;nan
9091;BME280;4581;42.416;25.598;2023-05-03T00:58:46;67036.88;;;0.00;nan
9091;BME280;4581;42.416;25.598;2023-05-03T01:01:13;67032.31;;;0.00;nan
9091;BME280;4581;42.416;25.598;2023-05-03T01:03:40;67021.63;;;0.00;nan
9091;BME280;4581;42.416;25.598;2023-05-03T01:09:17;67026.22;;;0.00;nan
9091;BME280;4581;42.416;25.598;2023-05-03T01:17:28;67030.78;;;0.00;nan
9091;BME280;4581;42.416;25.598;2023-05-03T01:19:59;67030.78;;;0.00;nan
9091;BME280;4581;42.416;25.598;2023-05-03T01:25:08;67020.09;;;0.00;nan
9091;BME280;4581;42.416;25.598;2023-05-03T01:27:36;67021.63;;;0.00;nan
9091;BME280;4581;42.416;25.598;2023-05-03T01:30:04;67026.22;;;0.00;nan
9091;BME280;4581;42.416;25.598;2023-05-03T01:35:43;67030.78;;;0.00;nan
9091;BME280;4581;42.416;25.598;2023-05-03T01:38:13;67024.69;;;0.00;nan
9091;BME280;4581;42.416;25.598;2023-05-03T01:40:54;67026.22;;;0.00;nan
9091;BME280;4581;42.416;25.598;2023-05-03T01:43:24;67017.06;;;0.00;nan
9091;BME280;4581;42.416;25.598;2023-05-03T01:45:51;67018.56;;;0.00;nan
9091;BME280;4581;42.416;25.598;2023-05-03T01:48:18;67017.06;;;0.00;nan
9091;BME280;4581;42.416;25.598;2023-05-03T01:50:45;67012.47;;;0.00;nan
9091;BME280;4581;42.416;25.598;2023-05-03T01:53:12;66998.75;;;0.00;nan
9091;BME280;4581;42.416;25.598;2023-05-03T01:55:39;67001.78;;;0.00;nan
9091;BME280;4581;42.416;25.598;2023-05-03T01:58:05;67000.28;;;0.00;nan
9091;BME280;4581;42.416;25.598;2023-05-03T02:00:32;66994.16;;;0.00;nan
9091;BME280;4581;42.416;25.598;2023-05-03T02:02:59;66997.22;;;0.00;nan
9091;BME280;4581;42.416;25.598;2023-05-03T02:05:26;66998.75;;;0.00;nan
9091;BME280;4581;42.416;25.598;2023-05-03T02:07:52;66997.22;;;0.00;nan
9091;BME280;4581;42.416;25.598;2023-05-03T02:10:19;66998.75;;;0.00;nan
9091;BME280;4581;42.416;25.598;2023-05-03T02:12:46;66998.75;;;0.00;nan
9091;BME280;4581;42.416;25.598;2023-05-03T02:15:12;67001.78;;;0.00;nan
9091;BME280;4581;42.416;25.598;2023-05-03T02:17:41;66997.22;;;0.00;nan
9091;BME280;4581;42.416;25.598;2023-05-03T02:20:08;66992.63;;;0.00;nan
9091;BME280;4581;42.416;25.598;2023-05-03T02:22:38;66995.69;;;0.00;nan
9091;BME280;4581;42.416;25.598;2023-05-03T02:25:05;67000.28;;;0.00;nan
9091;BME280;4581;42.416;25.598;2023-05-03T02:27:32;67007.91;;;0.00;nan
9091;BME280;4581;42.416;25.598;2023-05-03T02:29:59;67006.38;;;0.00;nan
9091;BME280;4581;42.416;25.598;2023-05-03T02:32:27;67010.94;;;0.00;nan
9091;BME280;4581;42.416;25.598;2023-05-03T02:34:53;67010.94;;;0.00;nan
9091;BME280;4581;42.416;25.598;2023-05-03T02:37:20;67007.91;;;0.00;nan
9091;BME280;4581;42.416;25.598;2023-05-03T02:39:47;67009.41;;;0.00;nan
9091;BME280;4581;42.416;25.598;2023-05-03T02:42:14;67010.94;;;0.00;nan
9091;BME280;4581;42.416;25.598;2023-05-03T02:44:41;67021.63;;;0.00;nan
9091;BME280;4581;42.416;25.598;2023-05-03T02:47:09;67018.56;;;0.00;nan
9091;BME280;4581;42.416;25.598;2023-05-03T02:49:35;67026.22;;;0.00;nan
9091;BME280;4581;42.416;25.598;2023-05-03T02:52:02;67026.22;;;0.00;nan
9091;BME280;4581;42.416;25.598;2023-05-03T02:54:29;67021.63;;;0.00;nan
9091;BME280;4581;42.416;25.598;2023-05-03T02:56:56;67030.78;;;0.00;nan
9091;BME280;4581;42.416;25.598;2023-05-03T02:59:23;67029.25;;;0.00;nan
9091;BME280;4581;42.416;25.598;2023-05-03T03:01:50;67029.25;;;0.00;nan
9091;BME280;4581;42.416;25.598;2023-05-03T03:04:17;67038.41;;;0.00;nan
9091;BME280;4581;42.416;25.598;2023-05-03T03:06:44;67033.84;;;0.00;nan
9091;BME280;4581;42.416;25.598;2023-05-03T03:09:11;67038.41;;;0.00;nan
9091;BME280;4581;42.416;25.598;2023-05-03T03:11:37;67038.41;;;0.00;nan
9091;BME280;4581;42.416;25.598;2023-05-03T03:14:04;67033.84;;;0.00;nan
9091;BME280;4581;42.416;25.598;2023-05-03T03:16:31;67029.25;;;0.00;nan
9091;BME280;4581;42.416;25.598;2023-05-03T03:18:58;67029.25;;;0.00;nan
9091;BME280;4581;42.416;25.598;2023-05-03T03:21:25;67030.78;;;0.00;nan
9091;BME280;4581;42.416;25.598;2023-05-03T03:23:52;67023.16;;;0.00;nan
9091;BME280;4581;42.416;25.598;2023-05-03T03:26:18;67023.16;;;0.00;nan
9091;BME280;4581;42.416;25.598;2023-05-03T03:28:45;67015.53;;;0.00;nan
9091;BME280;4581;42.416;25.598;2023-05-03T03:31:12;67017.06;;;0.00;nan
9091;BME280;4581;42.416;25.598;2023-05-03T03:33:39;67024.69;;;0.00;nan
9091;BME280;4581;42.416;25.598;2023-05-03T03:36:05;67017.06;;;0.00;nan
9091;BME280;4581;42.416;25.598;2023-05-03T03:38:33;67026.22;;;0.00;nan
9091;BME280;4581;42.416;25.598;2023-05-03T03:41:00;67030.78;;;0.00;nan
9091;BME280;4581;42.416;25.598;2023-05-03T03:43:27;67029.25;;;0.00;nan
9091;BME280;4581;42.416;25.598;2023-05-03T03:45:53;67023.16;;;0.00;nan
9091;BME280;4581;42.416;25.598;2023-05-03T03:48:20;67029.25;;;0.00;nan
9091;BME280;4581;42.416;25.598;2023-05-03T03:50:46;67036.88;;;0.00;nan
9091;BME280;4581;42.416;25.598;2023-05-03T03:53:13;67032.31;;;0.00;nan
9091;BME280;4581;42.416;25.598;2023-05-03T03:55:40;67026.22;;;0.00;nan
9091;BME280;4581;42.416;25.598;2023-05-03T03:58:07;67026.22;;;0.00;nan
9091;BME280;4581;42.416;25.598;2023-05-03T04:00:34;67021.63;;;0.00;nan
9091;BME280;4581;42.416;25.598;2023-05-03T04:03:04;67017.06;;;0.00;nan
9091;BME280;4581;42.416;25.598;2023-05-03T04:05:33;67017.06;;;0.00;nan
9091;BME280;4581;42.416;25.598;2023-05-03T04:07:59;67007.91;;;0.00;nan
9091;BME280;4581;42.416;25.598;2023-05-03T04:10:26;67014.00;;;0.00;nan
9091;BME280;4581;42.416;25.598;2023-05-03T04:12:53;67006.38;;;0.00;nan
9091;BME280;4581;42.416;25.598;2023-05-03T04:15:20;67009.41;;;0.00;nan
9091;BME280;4581;42.416;25.598;2023-05-03T04:17:47;67012.47;;;0.00;nan
9091;BME280;4581;42.416;25.598;2023-05-03T04:20:15;67006.38;;;0.00;nan
9091;BME280;4581;42.416;25.598;2023-05-03T04:22:43;67004.84;;;0.00;nan
9091;BME280;4581;42.416;25.598;2023-05-03T04:25:10;67012.47;;;0.00;nan
9091;BME280;4581;42.416;25.598;2023-05-03T04:27:39;67006.38;;;0.00;nan
9091;BME280;4581;42.416;25.598;2023-05-03T04:30:07;67003.31;;;0.00;nan
9091;BME280;4581;42.416;25.598;2023-05-03T04:32:34;66998.75;;;0.00;nan
9091;BME280;4581;42.416;25.598;2023-05-03T04:35:06;66997.22;;;0.00;nan
9091;BME280;4581;42.416;25.598;2023-05-03T04:37:39;67007.91;;;0.00;nan
9091;BME280;4581;42.416;25.598;2023-05-03T04:40:06;66998.75;;;0.00;nan
9091;BME280;4581;42.416;25.598;2023-05-03T04:42:38;66991.13;;;0.00;nan
9091;BME280;4581;42.416;25.598;2023-05-03T04:45:05;66986.53;;;0.00;nan
9091;BME280;4581;42.416;25.598;2023-05-03T04:47:32;66981.97;;;0.00;nan
9091;BME280;4581;42.416;25.598;2023-05-03T04:49:59;66994.16;;;0.00;nan
9091;BME280;4581;42.416;25.598;2023-05-03T04:52:26;67004.84;;;0.00;nan
9091;BME280;4581;42.416;25.598;2023-05-03T04:54:53;67015.53;;;0.00;nan
9091;BME280;4581;42.416;25.598;2023-05-03T04:57:19;67015.53;;;0.00;nan
9091;BME280;4581;42.416;25.598;2023-05-03T04:59:46;67021.63;;;0.00;nan
9091;BME280;4581;42.416;25.598;2023-05-03T05:02:13;67017.06;;;0.00;nan
9091;BME280;4581;42.416;25.598;2023-05-03T05:04:40;67015.53;;;0.00;nan
9091;BME280;4581;42.416;25.598;2023-05-03T05:07:06;67015.53;;;0.00;nan
9091;BME280;4581;42.416;25.598;2023-05-03T05:09:33;67007.91;;;0.00;nan
9091;BME280;4581;42.416;25.598;2023-05-03T05:12:00;67020.09;;;0.00;nan
9091;BME280;4581;42.416;25.598;2023-05-03T05:14:29;67014.00;;;0.00;nan
9091;BME280;4581;42.416;25.598;2023-05-03T05:16:56;67020.09;;;0.00;nan
9091;BME280;4581;42.416;25.598;2023-05-03T05:19:23;67032.31;;;0.00;nan
9091;BME280;4581;42.416;25.598;2023-05-03T05:21:51;67018.56;;;0.00;nan
9091;BME280;4581;42.416;25.598;2023-05-03T05:24:17;67017.06;;;0.00;nan
9091;BME280;4581;42.416;25.598;2023-05-03T05:26:44;67014.00;;;0.00;nan
9091;BME280;4581;42.416;25.598;2023-05-03T05:29:11;67007.91;;;0.00;nan
9091;BME280;4581;42.416;25.598;2023-05-03T05:31:38;66992.63;;;0.00;nan
9091;BME280;4581;42.416;25.598;2023-05-03T05:34:05;66997.22;;;0.00;nan
9091;BME280;4581;42.416;25.598;2023-05-03T05:36:32;66994.16;;;0.00;nan
9091;BME280;4581;42.416;25.598;2023-05-03T05:38:59;66989.59;;;0.00;nan
9091;BME280;4581;42.416;25.598;2023-05-03T05:41:25;66994.16;;;0.00;nan
9091;BME280;4581;42.416;25.598;2023-05-03T05:43:52;67003.31;;;0.00;nan
9091;BME280;4581;42.416;25.598;2023-05-03T05:46:19;67014.00;;;0.00;nan
9091;BME280;4581;42.416;25.598;2023-05-03T05:48:48;67010.94;;;0.00;nan
9091;BME280;4581;42.416;25.598;2023-05-03T05:51:17;67010.94;;;0.00;nan
9091;BME280;4581;42.416;25.598;2023-05-03T05:53:43;67010.94;;;0.00;nan
9091;BME280;4581;42.416;25.598;2023-05-03T05:56:10;67004.84;;;0.00;nan
9091;BME280;4581;42.416;25.598;2023-05-03T05:58:37;67006.38;;;0.00;nan
9091;BME280;4581;42.416;25.598;2023-05-03T06:01:04;67006.38;;;0.00;nan
9091;BME280;4581;42.416;25.598;2023-05-03T06:03:32;67014.00;;;0.00;nan
9091;BME280;4581;42.416;25.598;2023-05-03T06:05:59;67015.53;;;0.00;nan
9091;BME280;4581;42.416;25.598;2023-05-03T06:08:26;67021.63;;;0.00;nan
9091;BME280;4581;42.416;25.598;2023-05-03T06:10:54;67044.53;;;0.00;nan
9091;BME280;4581;42.416;25.598;2023-05-03T06:13:21;67055.19;;;0.00;nan
9091;BME280;4581;42.416;25.598;2023-05-03T06:15:48;67056.72;;;0.00;nan
9091;BME280;4581;42.416;25.598;2023-05-03T06:18:15;67062.81;;;0.00;nan
9091;BME280;4581;42.416;25.598;2023-05-03T06:20:42;67059.78;;;0.00;nan
9091;BME280;4581;42.416;25.598;2023-05-03T06:23:08;67053.69;;;0.00;nan
9091;BME280;4581;42.416;25.598;2023-05-03T06:25:35;67044.53;;;0.00;nan
9091;BME280;4581;42.416;25.598;2023-05-03T06:28:02;67017.06;;;0.00;nan
9091;BME280;4581;42.416;25.598;2023-05-03T06:30:30;67009.41;;;0.00;nan
9091;BME280;4581;42.416;25.598;2023-05-03T06:32:57;67004.84;;;0.00;nan
9091;BME280;4581;42.416;25.598;2023-05-03T06:35:24;66994.16;;;0.00;nan
9091;BME280;4581;42.416;25.598;2023-05-03T06:37:50;66992.63;;;0.00;nan
9091;BME280;4581;42.416;25.598;2023-05-03T06:40:17;66989.59;;;0.00;nan
9091;BME280;4581;42.416;25.598;2023-05-03T06:42:44;66962.13;;;0.00;nan
9091;BME280;4581;42.416;25.598;2023-05-03T06:45:10;66925.50;;;0.00;nan
9091;BME280;4581;42.416;25.598;2023-05-03T06:47:37;66891.94;;;0.00;nan
9091;BME280;4581;42.416;25.598;2023-05-03T06:50:06;66867.50;;;0.00;nan
9091;BME280;4581;42.416;25.598;2023-05-03T06:52:32;66849.19;;;0.00;nan
9091;BME280;4581;42.416;25.598;2023-05-03T06:54:59;66812.59;;;0.00;nan
9091;BME280;4581;42.416;25.598;2023-05-03T06:57:26;66818.69;;;0.00;nan
9091;BME280;4581;42.416;25.598;2023-05-03T06:59:54;66801.91;;;0.00;nan
9091;BME280;4581;42.416;25.598;2023-05-03T07:02:21;66798.84;;;0.00;nan
9091;BME280;4581;42.416;25.598;2023-05-03T07:04:48;66779.00;;;0.00;nan
9091;BME280;4581;42.416;25.598;2023-05-03T07:07:15;66774.44;;;0.00;nan
9091;BME280;4581;42.416;25.598;2023-05-03T07:09:42;66788.16;;;0.00;nan
9091;BME280;4581;42.416;25.598;2023-05-03T07:12:09;66782.06;;;0.00;nan
9091;BME280;4581;42.416;25.598;2023-05-03T07:14:37;66751.53;;;0.00;nan
9091;BME280;4581;42.416;25.598;2023-05-03T07:17:04;66721.03;;;0.00;nan
9091;BME280;4581;42.416;25.598;2023-05-03T07:19:31;66702.72;;;0.00;nan
9091;BME280;4581;42.416;25.598;2023-05-03T07:21:57;66672.19;;;0.00;nan
9091;BME280;4581;42.416;25.598;2023-05-03T07:24:24;66673.72;;;0.00;nan
9091;BME280;4581;42.416;25.598;2023-05-03T07:26:52;66653.88;;;0.00;nan
9091;BME280;4581;42.416;25.598;2023-05-03T07:29:19;66618.78;;;0.00;nan
9091;BME280;4581;42.416;25.598;2023-05-03T07:31:46;66614.22;;;0.00;nan
9091;BME280;4581;42.416;25.598;2023-05-03T07:34:13;66598.97;;;0.00;nan
9091;BME280;4581;42.416;25.598;2023-05-03T07:36:39;66568.44;;;0.00;nan
9091;BME280;4581;42.416;25.598;2023-05-03T07:39:06;66563.88;;;0.00;nan
9091;BME280;4581;42.416;25.598;2023-05-03T07:41:34;66553.19;;;0.00;nan
9091;BME280;4581;42.416;25.598;2023-05-03T07:44:01;66603.53;;;0.00;nan
9091;BME280;4581;42.416;25.598;2023-05-03T07:46:27;66608.13;;;0.00;nan
9091;BME280;4581;42.416;25.598;2023-05-03T07:48:54;66582.19;;;0.00;nan
9091;BME280;4581;42.416;25.598;2023-05-03T07:51:21;66528.78;;;0.00;nan
9091;BME280;4581;42.416;25.598;2023-05-03T07:53:48;66473.84;;;0.00;nan
9091;BME280;4581;42.416;25.598;2023-05-03T07:56:14;66447.91;;;0.00;nan
9091;BME280;4581;42.416;25.598;2023-05-03T07:58:41;66505.88;;;0.00;nan
9091;BME280;4581;42.416;25.598;2023-05-03T08:01:10;66489.09;;;0.00;nan
9091;BME280;4581;42.416;25.598;2023-05-03T08:03:37;66461.63;;;0.00;nan
9091;BME280;4581;42.416;25.598;2023-05-03T08:06:04;66435.69;;;0.00;nan
9091;BME280;4581;42.416;25.598;2023-05-03T08:08:31;66405.16;;;0.00;nan
9091;BME280;4581;42.416;25.598;2023-05-03T08:10:59;66376.19;;;0.00;nan
9091;BME280;4581;42.416;25.598;2023-05-03T08:13:26;66379.22;;;0.00;nan
9091;BME280;4581;42.416;25.598;2023-05-03T08:15:52;66435.69;;;0.00;nan
9091;BME280;4581;42.416;25.598;2023-05-03T08:18:19;66396.00;;;0.00;nan
9091;BME280;4581;42.416;25.598;2023-05-03T08:20:49;66363.97;;;0.00;nan
9091;BME280;4581;42.416;25.598;2023-05-03T08:23:16;66383.81;;;0.00;nan
9091;BME280;4581;42.416;25.598;2023-05-03T08:25:43;66379.22;;;0.00;nan
9091;BME280;4581;42.416;25.598;2023-05-03T08:28:10;66382.28;;;0.00;nan
9091;BME280;4581;42.416;25.598;2023-05-03T08:30:37;66385.34;;;0.00;nan
9091;BME280;4581;42.416;25.598;2023-05-03T08:33:04;66370.06;;;0.00;nan
9091;BME280;4581;42.416;25.598;2023-05-03T08:35:31;66377.72;;;0.00;nan
9091;BME280;4581;42.416;25.598;2023-05-03T08:37:57;66348.72;;;0.00;nan
9091;BME280;4581;42.416;25.598;2023-05-03T08:40:26;66373.13;;;0.00;nan
9091;BME280;4581;42.416;25.598;2023-05-03T08:42:55;66406.69;;;0.00;nan
9091;BME280;4581;42.416;25.598;2023-05-03T08:45:22;66403.66;;;0.00;nan
9091;BME280;4581;42.416;25.598;2023-05-03T08:47:55;66426.53;;;0.00;nan
9091;BME280;4581;42.416;25.598;2023-05-03T08:50:22;66417.38;;;0.00;nan
9091;BME280;4581;42.416;25.598;2023-05-03T08:52:49;66461.63;;;0.00;nan
9091;BME280;4581;42.416;25.598;2023-05-03T08:55:16;66449.41;;;0.00;nan
9091;BME280;4581;42.416;25.598;2023-05-03T08:57:43;66423.47;;;0.00;nan
9091;BME280;4581;42.416;25.598;2023-05-03T09:00:10;66399.06;;;0.00;nan
9091;BME280;4581;42.416;25.598;2023-05-03T09:02:38;66357.88;;;0.00;nan
9091;BME280;4581;42.416;25.598;2023-05-03T09:08:06;66357.88;;;0.00;nan
9091;BME280;4581;42.416;25.598;2023-05-03T09:10:36;66356.34;;;0.00;nan
9091;BME280;4581;42.416;25.598;2023-05-03T09:13:03;66324.31;;;0.00;nan
9091;BME280;4581;42.416;25.598;2023-05-03T09:15:30;66298.34;;;0.00;nan
9091;BME280;4581;42.416;25.598;2023-05-03T09:18:18;66263.25;;;0.00;nan
9091;BME280;4581;42.416;25.598;2023-05-03T09:20:47;66275.47;;;0.00;nan
9091;BME280;4581;42.416;25.598;2023-05-03T09:25:51;66183.91;;;0.00;nan
9091;BME280;4581;42.416;25.598;2023-05-03T09:28:19;66168.66;;;0.00;nan
9091;BME280;4581;42.416;25.598;2023-05-03T09:30:47;66156.44;;;0.00;nan
9091;BME280;4581;42.416;25.598;2023-05-03T09:33:14;66130.50;;;0.00;nan
9091;BME280;4581;42.416;25.598;2023-05-03T09:36:02;66148.81;;;0.00;nan
9091;BME280;4581;42.416;25.598;2023-05-03T09:38:34;66180.88;;;0.00;nan
9091;BME280;4581;42.416;25.598;2023-05-03T09:41:02;66190.03;;;0.00;nan
9091;BME280;4581;42.416;25.598;2023-05-03T09:43:33;66214.44;;;0.00;nan
9091;BME280;4581;42.416;25.598;2023-05-03T09:46:09;66290.72;;;0.00;nan
9091;BME280;4581;42.416;25.598;2023-05-03T09:48:37;66280.03;;;0.00;nan
9091;BME280;4581;42.416;25.598;2023-05-03T09:51:05;66275.47;;;0.00;nan
9091;BME280;4581;42.416;25.598;2023-05-03T09:53:33;66252.59;;;0.00;nan
9091;BME280;4581;42.416;25.598;2023-05-03T09:56:05;66252.59;;;0.00;nan
9091;BME280;4581;42.416;25.598;2023-05-03T09:58:38;66270.91;;;0.00;nan
9091;BME280;4581;42.416;25.598;2023-05-03T10:01:05;66273.94;;;0.00;nan
9091;BME280;4581;42.416;25.598;2023-05-03T10:03:38;66264.78;;;0.00;nan
9091;BME280;4581;42.416;25.598;2023-05-03T10:06:14;66272.41;;;0.00;nan
9091;BME280;4581;42.416;25.598;2023-05-03T10:08:48;66278.53;;;0.00;nan
9091;BME280;4581;42.416;25.598;2023-05-03T10:11:17;66280.03;;;0.00;nan
9091;BME280;4581;42.416;25.598;2023-05-03T10:13:45;66257.16;;;0.00;nan
9091;BME280;4581;42.416;25.598;2023-05-03T10:16:16;66263.25;;;0.00;nan
9091;BME280;4581;42.416;25.598;2023-05-03T10:18:57;66280.03;;;0.00;nan
9091;BME280;4581;42.416;25.598;2023-05-03T10:21:53;66275.47;;;0.00;nan
9091;BME280;4581;42.416;25.598;2023-05-03T10:24:21;66277.00;;;0.00;nan
9091;BME280;4581;42.416;25.598;2023-05-03T10:26:49;66269.38;;;0.00;nan
9091;BME280;4581;42.416;25.598;2023-05-03T10:35:03;66185.44;;;0.00;nan
9091;BME280;4581;42.416;25.598;2023-05-03T10:37:32;66205.28;;;0.00;nan
9091;BME280;4581;42.416;25.598;2023-05-03T10:40:05;66235.78;;;0.00;nan
9091;BME280;4581;42.416;25.598;2023-05-03T10:42:32;66275.47;;;0.00;nan
9091;BME280;4581;42.416;25.598;2023-05-03T10:44:59;66290.72;;;0.00;nan
9091;BME280;4581;42.416;25.598;2023-05-03T10:47:28;66309.03;;;0.00;nan
9091;BME280;4581;42.416;25.598;2023-05-03T10:55:21;66330.41;;;0.00;nan
9091;BME280;4581;42.416;25.598;2023-05-03T10:57:53;66336.50;;;0.00;nan
9091;BME280;4581;42.416;25.598;2023-05-03T11:00:37;66348.72;;;0.00;nan
9091;BME280;4581;42.416;25.598;2023-05-03T11:06:02;66374.66;;;0.00;nan
9091;BME280;4581;42.416;25.598;2023-05-03T11:08:29;66368.56;;;0.00;nan
9091;BME280;4581;42.416;25.598;2023-05-03T11:11:03;66371.59;;;0.00;nan
9091;BME280;4581;42.416;25.598;2023-05-03T11:13:35;66377.72;;;0.00;nan
9091;BME280;4581;42.416;25.598;2023-05-03T11:16:03;66374.66;;;0.00;nan
9091;BME280;4581;42.416;25.598;2023-05-03T11:18:33;66365.50;;;0.00;nan
9091;BME280;4581;42.416;25.598;2023-05-03T11:21:00;66371.59;;;0.00;nan
9091;BME280;4581;42.416;25.598;2023-05-03T11:23:27;66354.81;;;0.00;nan
9091;BME280;4581;42.416;25.598;2023-05-03T11:25:55;66322.78;;;0.00;nan
9091;BME280;4581;42.416;25.598;2023-05-03T11:28:24;66319.72;;;0.00;nan
9091;BME280;4581;42.416;25.598;2023-05-03T11:30:51;66333.44;;;0.00;nan
9091;BME280;4581;42.416;25.598;2023-05-03T11:33:18;66338.03;;;0.00;nan
9091;BME280;4581;42.416;25.598;2023-05-03T11:35:44;66341.09;;;0.00;nan
9091;BME280;4581;42.416;25.598;2023-05-03T11:38:11;66350.25;;;0.00;nan
9091;BME280;4581;42.416;25.598;2023-05-03T11:40:38;66348.72;;;0.00;nan
9091;BME280;4581;42.416;25.598;2023-05-03T11:43:05;66347.19;;;0.00;nan
9091;BME280;4581;42.416;25.598;2023-05-03T11:45:45;66373.13;;;0.00;nan
9091;BME280;4581;42.416;25.598;2023-05-03T11:48:12;66367.03;;;0.00;nan
9091;BME280;4581;42.416;25.598;2023-05-03T11:50:46;66376.19;;;0.00;nan
9091;BME280;4581;42.416;25.598;2023-05-03T11:53:14;66385.34;;;0.00;nan
9091;BME280;4581;42.416;25.598;2023-05-03T11:55:43;66391.44;;;0.00;nan
9091;BME280;4581;42.416;25.598;2023-05-03T11:58:15;66429.59;;;0.00;nan
9091;BME280;4581;42.416;25.598;2023-05-03T12:00:50;66440.25;;;0.00;nan
9091;BME280;4581;42.416;25.598;2023-05-03T12:05:45;66423.47;;;0.00;nan
9091;BME280;4581;42.416;25.598;2023-05-03T12:08:13;66409.75;;;0.00;nan
9091;BME280;4581;42.416;25.598;2023-05-03T12:10:42;66391.44;;;0.00;nan
9091;BME280;4581;42.416;25.598;2023-05-03T12:13:10;66382.28;;;0.00;nan
9091;BME280;4581;42.416;25.598;2023-05-03T12:15:39;66379.22;;;0.00;nan
9091;BME280;4581;42.416;25.598;2023-05-03T12:18:10;66420.44;;;0.00;nan
9091;BME280;4581;42.416;25.598;2023-05-03T12:20:38;66420.44;;;0.00;nan
9091;BME280;4581;42.416;25.598;2023-05-03T12:23:08;66438.75;;;0.00;nan
9091;BME280;4581;42.416;25.598;2023-05-03T12:25:36;66449.41;;;0.00;nan
9091;BME280;4581;42.416;25.598;2023-05-03T12:28:05;66457.06;;;0.00;nan
9091;BME280;4581;42.416;25.598;2023-05-03T12:30:45;66450.94;;;0.00;nan
9091;BME280;4581;42.416;25.598;2023-05-03T12:33:12;66446.38;;;0.00;nan
9091;BME280;4581;42.416;25.598;2023-05-03T12:35:41;66447.91;;;0.00;nan
9091;BME280;4581;42.416;25.598;2023-05-03T12:38:12;66475.38;;;0.00;nan
9091;BME280;4581;42.416;25.598;2023-05-03T12:40:42;66483.00;;;0.00;nan
9091;BME280;4581;42.416;25.598;2023-05-03T12:43:10;66478.41;;;0.00;nan
9091;BME280;4581;42.416;25.598;2023-05-03T12:45:37;66457.06;;;0.00;nan
9091;BME280;4581;42.416;25.598;2023-05-03T12:48:06;66469.25;;;0.00;nan
9091;BME280;4581;42.416;25.598;2023-05-03T12:50:34;66484.53;;;0.00;nan
9091;BME280;4581;42.416;25.598;2023-05-03T12:53:04;66498.25;;;0.00;nan
9091;BME280;4581;42.416;25.598;2023-05-03T12:55:35;66495.19;;;0.00;nan
9091;BME280;4581;42.416;25.598;2023-05-03T12:58:07;66492.16;;;0.00;nan
9091;BME280;4581;42.416;25.598;2023-05-03T13:00:37;66495.19;;;0.00;nan
9091;BME280;4581;42.416;25.598;2023-05-03T13:03:15;66492.16;;;0.00;nan
9091;BME280;4581;42.416;25.598;2023-05-03T13:05:46;66475.38;;;0.00;nan
9091;BME280;4581;42.416;25.598;2023-05-03T13:08:13;66467.72;;;0.00;nan
9091;BME280;4581;42.416;25.598;2023-05-03T13:10:46;66458.56;;;0.00;nan
9091;BME280;4581;42.416;25.598;2023-05-03T13:13:13;66420.44;;;0.00;nan
9091;BME280;4581;42.416;25.598;2023-05-03T13:15:40;66394.50;;;0.00;nan
9091;BME280;4581;42.416;25.598;2023-05-03T13:18:07;66400.59;;;0.00;nan
9091;BME280;4581;42.416;25.598;2023-05-03T13:20:35;66403.66;;;0.00;nan
9091;BME280;4581;42.416;25.598;2023-05-03T13:23:02;66386.84;;;0.00;nan
9091;BME280;4581;42.416;25.598;2023-05-03T13:25:30;66370.06;;;0.00;nan
9091;BME280;4581;42.416;25.598;2023-05-03T13:27:59;66353.28;;;0.00;nan
9091;BME280;4581;42.416;25.598;2023-05-03T13:30:27;66342.59;;;0.00;nan
9091;BME280;4581;42.416;25.598;2023-05-03T13:32:53;66334.97;;;0.00;nan
9091;BME280;4581;42.416;25.598;2023-05-03T13:35:20;66310.56;;;0.00;nan
9091;BME280;4581;42.416;25.598;2023-05-03T13:37:47;66293.78;;;0.00;nan
9091;BME280;4581;42.416;25.598;2023-05-03T13:40:13;66299.88;;;0.00;nan
9091;BME280;4581;42.416;25.598;2023-05-03T13:42:40;66318.19;;;0.00;nan
9091;BME280;4581;42.416;25.598;2023-05-03T13:45:07;66318.19;;;0.00;nan
9091;BME280;4581;42.416;25.598;2023-05-03T13:47:35;66324.31;;;0.00;nan
9091;BME280;4581;42.416;25.598;2023-05-03T13:50:22;66327.34;;;0.00;nan
9091;BME280;4581;42.416;25.598;2023-05-03T13:52:49;66321.25;;;0.00;nan
9091;BME280;4581;42.416;25.598;2023-05-03T13:55:15;66339.56;;;0.00;nan
9091;BME280;4581;42.416;25.598;2023-05-03T13:57:42;66333.44;;;0.00;nan
9091;BME280;4581;42.416;25.598;2023-05-03T14:00:10;66342.59;;;0.00;nan
9091;BME280;4581;42.416;25.598;2023-05-03T14:02:36;66339.56;;;0.00;nan
9091;BME280;4581;42.416;25.598;2023-05-03T14:05:03;66351.75;;;0.00;nan
9091;BME280;4581;42.416;25.598;2023-05-03T14:07:31;66350.25;;;0.00;nan
9091;BME280;4581;42.416;25.598;2023-05-03T14:09:58;66363.97;;;0.00;nan
9091;BME280;4581;42.416;25.598;2023-05-03T14:12:24;66368.56;;;0.00;nan
9091;BME280;4581;42.416;25.598;2023-05-03T14:14:52;66356.34;;;0.00;nan
9091;BME280;4581;42.416;25.598;2023-05-03T14:17:19;66351.75;;;0.00;nan
9091;BME280;4581;42.416;25.598;2023-05-03T14:19:47;66365.50;;;0.00;nan
9091;BME280;4581;42.416;25.598;2023-05-03T14:22:13;66374.66;;;0.00;nan
9091;BME280;4581;42.416;25.598;2023-05-03T14:24:40;66380.75;;;0.00;nan
9091;BME280;4581;42.416;25.598;2023-05-03T14:27:08;66402.13;;;0.00;nan